sensor_id;sensor_type;location;lat;lon;timestamp;temperature;humidity
67763;DHT22;54566;52.022;5.582;2022-08-11T01:35:29;20.00;48.70
67763;DHT22;54566;52.022;5.582;2022-08-11T01:46:38;19.80;53.10
67763;DHT22;54566;52.022;5.582;2022-08-11T01:52:20;19.70;50.80
67763;DHT22;54566;52.022;5.582;2022-08-11T01:58:07;19.70;52.10
67763;DHT22;54566;52.022;5.582;2022-08-11T02:00:38;19.60;50.00
67763;DHT22;54566;52.022;5.582;2022-08-11T02:03:26;19.60;50.10
67763;DHT22;54566;52.022;5.582;2022-08-11T02:06:03;19.60;51.20
67763;DHT22;54566;52.022;5.582;2022-08-11T02:09:49;19.50;50.90
67763;DHT22;54566;52.022;5.582;2022-08-11T02:11:48;19.50;50.70
67763;DHT22;54566;52.022;5.582;2022-08-11T02:14:33;19.50;50.40
67763;DHT22;54566;52.022;5.582;2022-08-11T02:23:07;19.30;50.80
67763;DHT22;54566;52.022;5.582;2022-08-11T02:26:01;19.30;50.80
67763;DHT22;54566;52.022;5.582;2022-08-11T02:29:14;19.30;51.20
67763;DHT22;54566;52.022;5.582;2022-08-11T02:35:00;19.20;53.20
67763;DHT22;54566;52.022;5.582;2022-08-11T02:40:20;19.20;52.80
67763;DHT22;54566;52.022;5.582;2022-08-11T02:48:29;19.10;52.40
67763;DHT22;54566;52.022;5.582;2022-08-11T02:54:26;19.00;53.00
67763;DHT22;54566;52.022;5.582;2022-08-11T02:57:14;19.10;54.10
67763;DHT22;54566;52.022;5.582;2022-08-11T03:00:03;19.00;54.00
67763;DHT22;54566;52.022;5.582;2022-08-11T03:02:47;19.00;53.10
67763;DHT22;54566;52.022;5.582;2022-08-11T03:05:30;18.90;53.80
67763;DHT22;54566;52.022;5.582;2022-08-11T03:11:10;18.80;57.00
67763;DHT22;54566;52.022;5.582;2022-08-11T03:14:21;18.80;54.10
67763;DHT22;54566;52.022;5.582;2022-08-11T03:19:59;18.70;53.80
67763;DHT22;54566;52.022;5.582;2022-08-11T03:22:35;18.60;54.20
67763;DHT22;54566;52.022;5.582;2022-08-11T03:25:27;18.60;54.50
67763;DHT22;54566;52.022;5.582;2022-08-11T03:28:15;18.50;55.30
67763;DHT22;54566;52.022;5.582;2022-08-11T03:31:25;18.50;56.70
67763;DHT22;54566;52.022;5.582;2022-08-11T03:34:15;18.40;57.30
67763;DHT22;54566;52.022;5.582;2022-08-11T03:44:58;18.40;55.40
67763;DHT22;54566;52.022;5.582;2022-08-11T03:47:57;18.40;57.10
67763;DHT22;54566;52.022;5.582;2022-08-11T03:50:47;18.40;57.20
67763;DHT22;54566;52.022;5.582;2022-08-11T04:16:15;18.20;58.00
67763;DHT22;54566;52.022;5.582;2022-08-11T04:30:22;18.20;58.30
67763;DHT22;54566;52.022;5.582;2022-08-11T04:47:53;18.10;59.30
67763;DHT22;54566;52.022;5.582;2022-08-11T04:57:07;18.10;57.60
67763;DHT22;54566;52.022;5.582;2022-08-11T05:06:09;18.10;59.50
67763;DHT22;54566;52.022;5.582;2022-08-11T05:17:08;18.10;63.00
67763;DHT22;54566;52.022;5.582;2022-08-11T05:19:53;18.10;58.30
67763;DHT22;54566;52.022;5.582;2022-08-11T05:22:46;18.10;57.10
67763;DHT22;54566;52.022;5.582;2022-08-11T05:25:31;18.10;57.60
67763;DHT22;54566;52.022;5.582;2022-08-11T05:28:41;18.20;57.50
67763;DHT22;54566;52.022;5.582;2022-08-11T05:31:35;18.20;59.40
67763;DHT22;54566;52.022;5.582;2022-08-11T05:34:47;18.30;57.40
67763;DHT22;54566;52.022;5.582;2022-08-11T05:37:32;18.40;60.00
67763;DHT22;54566;52.022;5.582;2022-08-11T05:40:13;18.40;57.60
67763;DHT22;54566;52.022;5.582;2022-08-11T05:43:10;18.40;58.40
67763;DHT22;54566;52.022;5.582;2022-08-11T05:45:57;18.40;58.30
67763;DHT22;54566;52.022;5.582;2022-08-11T05:48:42;18.50;57.30
67763;DHT22;54566;52.022;5.582;2022-08-11T05:51:38;18.50;57.30
67763;DHT22;54566;52.022;5.582;2022-08-11T05:54:25;18.60;58.40
67763;DHT22;54566;52.022;5.582;2022-08-11T05:57:23;18.60;57.10
67763;DHT22;54566;52.022;5.582;2022-08-11T06:00:02;18.70;57.70
67763;DHT22;54566;52.022;5.582;2022-08-11T06:02:29;18.70;57.90
67763;DHT22;54566;52.022;5.582;2022-08-11T06:05:00;18.70;57.10
67763;DHT22;54566;52.022;5.582;2022-08-11T06:07:28;18.80;57.50
67763;DHT22;54566;52.022;5.582;2022-08-11T06:09:54;18.90;57.20
67763;DHT22;54566;52.022;5.582;2022-08-11T06:12:30;18.90;57.10
67763;DHT22;54566;52.022;5.582;2022-08-11T06:15:00;19.00;59.90
67763;DHT22;54566;52.022;5.582;2022-08-11T06:17:31;19.10;57.20
67763;DHT22;54566;52.022;5.582;2022-08-11T06:20:08;19.20;57.00
67763;DHT22;54566;52.022;5.582;2022-08-11T06:22:38;19.30;58.40
67763;DHT22;54566;52.022;5.582;2022-08-11T06:25:06;19.40;55.70
67763;DHT22;54566;52.022;5.582;2022-08-11T06:27:34;19.50;55.50
67763;DHT22;54566;52.022;5.582;2022-08-11T06:30:02;19.60;55.30
67763;DHT22;54566;52.022;5.582;2022-08-11T06:32:40;19.80;55.10
67763;DHT22;54566;52.022;5.582;2022-08-11T06:39:06;19.90;56.40
67763;DHT22;54566;52.022;5.582;2022-08-11T06:41:39;20.10;56.10
67763;DHT22;54566;52.022;5.582;2022-08-11T06:46:42;20.20;54.40
67763;DHT22;54566;52.022;5.582;2022-08-11T06:49:13;20.20;54.80
67763;DHT22;54566;52.022;5.582;2022-08-11T06:52:13;20.20;54.60
67763;DHT22;54566;52.022;5.582;2022-08-11T06:54:51;20.30;55.30
67763;DHT22;54566;52.022;5.582;2022-08-11T06:57:36;20.40;54.10
67763;DHT22;54566;52.022;5.582;2022-08-11T07:13:09;20.80;54.10
67763;DHT22;54566;52.022;5.582;2022-08-11T07:15:56;20.90;53.50
67763;DHT22;54566;52.022;5.582;2022-08-11T07:18:26;21.00;53.50
67763;DHT22;54566;52.022;5.582;2022-08-11T07:21:20;21.20;53.20
67763;DHT22;54566;52.022;5.582;2022-08-11T07:24:16;21.40;52.80
67763;DHT22;54566;52.022;5.582;2022-08-11T07:30:24;21.90;53.30
67763;DHT22;54566;52.022;5.582;2022-08-11T07:32:52;22.30;51.40
67763;DHT22;54566;52.022;5.582;2022-08-11T07:35:34;22.60;50.90
67763;DHT22;54566;52.022;5.582;2022-08-11T07:38:06;22.80;50.90
67763;DHT22;54566;52.022;5.582;2022-08-11T07:43:56;23.50;50.30
67763;DHT22;54566;52.022;5.582;2022-08-11T07:46:39;23.80;49.10
67763;DHT22;54566;52.022;5.582;2022-08-11T07:49:24;24.10;49.30
67763;DHT22;54566;52.022;5.582;2022-08-11T07:55:31;24.60;47.80
67763;DHT22;54566;52.022;5.582;2022-08-11T08:01:22;25.40;45.80
67763;DHT22;54566;52.022;5.582;2022-08-11T08:06:53;26.00;47.10
67763;DHT22;54566;52.022;5.582;2022-08-11T08:12:25;26.10;44.80
67763;DHT22;54566;52.022;5.582;2022-08-11T08:15:12;26.40;45.50
67763;DHT22;54566;52.022;5.582;2022-08-11T08:18:00;26.80;43.90
67763;DHT22;54566;52.022;5.582;2022-08-11T08:20:34;26.80;44.60
67763;DHT22;54566;52.022;5.582;2022-08-11T08:23:01;27.00;43.80
67763;DHT22;54566;52.022;5.582;2022-08-11T08:25:32;27.10;44.00
67763;DHT22;54566;52.022;5.582;2022-08-11T08:28:01;27.30;43.30
67763;DHT22;54566;52.022;5.582;2022-08-11T08:33:50;27.60;41.70
67763;DHT22;54566;52.022;5.582;2022-08-11T08:36:16;27.90;42.10
67763;DHT22;54566;52.022;5.582;2022-08-11T08:38:47;27.80;43.00
67763;DHT22;54566;52.022;5.582;2022-08-11T08:41:18;28.10;42.60
67763;DHT22;54566;52.022;5.582;2022-08-11T08:46:53;28.60;39.10
67763;DHT22;54566;52.022;5.582;2022-08-11T08:49:24;28.70;41.00
67763;DHT22;54566;52.022;5.582;2022-08-11T08:51:53;28.90;41.00
67763;DHT22;54566;52.022;5.582;2022-08-11T08:54:47;29.10;40.60
67763;DHT22;54566;52.022;5.582;2022-08-11T08:57:16;29.30;38.30
67763;DHT22;54566;52.022;5.582;2022-08-11T08:59:44;29.50;39.90
67763;DHT22;54566;52.022;5.582;2022-08-11T09:02:12;29.70;39.70
67763;DHT22;54566;52.022;5.582;2022-08-11T09:04:39;29.70;39.60
67763;DHT22;54566;52.022;5.582;2022-08-11T09:07:10;29.80;39.00
67763;DHT22;54566;52.022;5.582;2022-08-11T09:09:50;29.80;38.60
67763;DHT22;54566;52.022;5.582;2022-08-11T09:12:21;29.80;36.90
67763;DHT22;54566;52.022;5.582;2022-08-11T09:17:59;30.10;36.10
67763;DHT22;54566;52.022;5.582;2022-08-11T09:20:32;30.30;38.70
67763;DHT22;54566;52.022;5.582;2022-08-11T09:23:05;30.40;38.70
67763;DHT22;54566;52.022;5.582;2022-08-11T09:25:54;30.60;38.00
67763;DHT22;54566;52.022;5.582;2022-08-11T09:28:42;30.50;37.80
67763;DHT22;54566;52.022;5.582;2022-08-11T09:31:09;30.40;37.90
67763;DHT22;54566;52.022;5.582;2022-08-11T09:33:36;30.60;38.00
67763;DHT22;54566;52.022;5.582;2022-08-11T09:36:03;30.70;38.00
67763;DHT22;54566;52.022;5.582;2022-08-11T09:38:50;30.70;37.90
67763;DHT22;54566;52.022;5.582;2022-08-11T09:42:12;30.80;37.60
67763;DHT22;54566;52.022;5.582;2022-08-11T09:44:38;30.90;33.90
67763;DHT22;54566;52.022;5.582;2022-08-11T09:47:25;30.80;79.70
67763;DHT22;54566;52.022;5.582;2022-08-11T09:52:22;30.70;32.70
67763;DHT22;54566;52.022;5.582;2022-08-11T09:54:50;30.70;36.20
67763;DHT22;54566;52.022;5.582;2022-08-11T09:57:20;30.80;36.40
67763;DHT22;54566;52.022;5.582;2022-08-11T10:00:07;30.90;34.80
67763;DHT22;54566;52.022;5.582;2022-08-11T10:02:44;30.80;35.80
67763;DHT22;54566;52.022;5.582;2022-08-11T10:05:11;30.80;34.90
67763;DHT22;54566;52.022;5.582;2022-08-11T10:07:57;31.10;36.00
67763;DHT22;54566;52.022;5.582;2022-08-11T10:10:24;31.40;30.50
67763;DHT22;54566;52.022;5.582;2022-08-11T10:12:57;31.80;29.70
67763;DHT22;54566;52.022;5.582;2022-08-11T10:15:25;31.90;32.40
67763;DHT22;54566;52.022;5.582;2022-08-11T10:20:48;32.00;33.70
67763;DHT22;54566;52.022;5.582;2022-08-11T10:23:14;32.20;34.00
67763;DHT22;54566;52.022;5.582;2022-08-11T10:25:59;32.20;27.20
67763;DHT22;54566;52.022;5.582;2022-08-11T10:28:43;32.00;33.70
67763;DHT22;54566;52.022;5.582;2022-08-11T10:34:31;32.30;29.20
67763;DHT22;54566;52.022;5.582;2022-08-11T10:36:57;32.30;33.20
67763;DHT22;54566;52.022;5.582;2022-08-11T10:39:27;32.40;32.80
67763;DHT22;54566;52.022;5.582;2022-08-11T10:41:54;32.70;33.10
67763;DHT22;54566;52.022;5.582;2022-08-11T10:44:43;32.70;32.70
67763;DHT22;54566;52.022;5.582;2022-08-11T10:50:32;33.10;27.90
67763;DHT22;54566;52.022;5.582;2022-08-11T10:53:17;33.00;32.50
67763;DHT22;54566;52.022;5.582;2022-08-11T10:59:26;33.10;28.50
67763;DHT22;54566;52.022;5.582;2022-08-11T11:05:22;33.40;27.60
67763;DHT22;54566;52.022;5.582;2022-08-11T11:08:19;33.30;29.30
67763;DHT22;54566;52.022;5.582;2022-08-11T11:18:03;33.30;28.50
